Terminal Aerodrome Forecast
Issued by NWS Jackson, MS

Home | Current Version | Previous Version | Text Only | Print | Product List | Glossary On
Versions: 1 2 3 4 5 6 7 8 9 10 11 12 13 14 15 16 17 18 19 20
000
FTUS44 KJAN 300520
TAFHBG
TAF
KHBG 300520Z 3006/3106 VRB03KT P6SM FEW040 SCT250
     FM300900 00000KT 6SM BR OVC010
     FM301000 00000KT 2SM BR OVC005
     FM301100 00000KT 1/2SM FG OVC001
     FM301300 16002KT 1 1/2SM BR OVC003
     FM301400 18003KT P6SM OVC007
     FM301500 20005KT P6SM BKN035
     FM301900 21007KT P6SM VCTS SCT030 BKN050CB BKN250
     FM310000 19005KT P6SM SCT020 BKN060 BKN250=

USA.gov is the U.S. government's official web portal to all federal, state and local government web resources and services.